createdAt,value
2022-09-28T00:01:22.164Z,63.64
2022-09-28T00:03:53.746Z,63.90
2022-09-28T00:06:24.542Z,63.79
2022-09-28T00:08:54.072Z,63.76
2022-09-28T00:11:22.069Z,63.00
2022-09-28T00:13:51.778Z,63.52
2022-09-28T00:16:20.614Z,63.99
2022-09-28T00:18:47.381Z,64.14
2022-09-28T00:21:18.511Z,64.48
2022-09-28T00:24:03.847Z,64.60
2022-09-28T00:26:33.839Z,64.56
2022-09-28T00:29:02.117Z,64.27
2022-09-28T00:31:33.034Z,64.70
2022-09-28T00:34:02.737Z,64.43
2022-09-28T00:36:33.025Z,64.05
2022-09-28T00:39:04.611Z,63.87
2022-09-28T00:41:31.347Z,63.80
2022-09-28T00:44:22.806Z,63.60
2022-09-28T00:47:03.637Z,63.57
2022-09-28T00:49:35.181Z,63.36
2022-09-28T00:52:03.826Z,64.18
2022-09-28T00:54:30.494Z,62.87
2022-09-28T00:56:57.799Z,64.01
2022-09-28T00:59:27.027Z,64.04
2022-09-28T01:01:53.810Z,64.10
2022-09-28T01:04:22.154Z,63.68
2022-09-28T01:06:51.387Z,63.55
2022-09-28T01:09:18.540Z,62.72
2022-09-28T01:11:45.309Z,62.19
2022-09-28T01:14:13.481Z,61.71
2022-09-28T01:16:52.183Z,62.95
2022-09-28T01:19:58.298Z,63.16
2022-09-28T01:22:44.969Z,62.78
2022-09-28T01:25:27.868Z,62.48
2022-09-28T01:28:04.573Z,62.56
2022-09-28T01:30:38.926Z,62.61
2022-09-28T01:33:12.713Z,63.38
2022-09-28T01:35:48.064Z,62.98
2022-09-28T01:38:25.656Z,63.36
2022-09-28T01:40:53.001Z,63.81
2022-09-28T01:43:32.833Z,63.55
2022-09-28T01:46:11.495Z,62.65
2022-09-28T01:48:58.809Z,61.87
2022-09-28T01:51:37.810Z,62.81
2022-09-28T01:54:13.646Z,63.01
2022-09-28T01:56:52.833Z,62.54
2022-09-28T01:59:24.135Z,62.84
2022-09-28T02:01:59.609Z,62.14
2022-09-28T02:04:53.128Z,62.65
2022-09-28T02:07:51.814Z,61.50
2022-09-28T02:10:23.139Z,60.98
2022-09-28T02:13:01.936Z,61.71
2022-09-28T02:15:47.074Z,61.43
2022-09-28T02:18:16.259Z,59.73
2022-09-28T02:20:52.777Z,61.24
2022-09-28T02:23:22.834Z,61.36
2022-09-28T02:25:58.850Z,61.83
2022-09-28T02:28:30.506Z,61.90
2022-09-28T02:30:57.346Z,61.56
2022-09-28T02:33:33.719Z,61.61
2022-09-28T02:36:03.740Z,62.03
2022-09-28T02:38:34.778Z,61.76
2022-09-28T02:41:01.903Z,61.69
2022-09-28T02:43:59.646Z,61.46
2022-09-28T02:46:32.766Z,61.34
2022-09-28T02:49:21.786Z,60.82
2022-09-28T02:52:04.477Z,60.74
2022-09-28T02:54:52.832Z,60.93
2022-09-28T02:57:40.201Z,60.74
2022-09-28T03:00:12.194Z,61.14
2022-09-28T03:03:10.476Z,59.73
2022-09-28T03:05:37.213Z,60.41
2022-09-28T03:08:07.476Z,60.89
2022-09-28T03:10:41.593Z,61.47
2022-09-28T03:13:09.248Z,61.40
2022-09-28T03:15:39.025Z,61.65
2022-09-28T03:18:05.761Z,61.94
2022-09-28T03:20:35.756Z,60.56
2022-09-28T03:23:24.891Z,61.17
2022-09-28T03:25:54.580Z,59.37
2022-09-28T03:28:21.948Z,59.51
2022-09-28T03:30:52.153Z,60.27
2022-09-28T03:33:19.868Z,60.60
2022-09-28T03:35:48.071Z,60.89
2022-09-28T03:38:15.413Z,60.67
2022-09-28T03:40:45.042Z,60.50
2022-09-28T03:43:11.808Z,60.15
2022-09-28T03:45:38.858Z,60.53
2022-09-28T03:48:05.647Z,61.24
2022-09-28T03:50:33.877Z,61.15
2022-09-28T03:53:04.281Z,61.67
2022-09-28T03:55:31.151Z,60.68
2022-09-28T03:57:57.986Z,61.23
2022-09-28T04:00:24.659Z,60.69
2022-09-28T04:02:56.118Z,61.80
2022-09-28T04:05:28.205Z,61.65
2022-09-28T04:07:56.371Z,61.04
2022-09-28T04:10:28.854Z,60.62
2022-09-28T04:13:01.270Z,61.08
2022-09-28T04:15:28.014Z,60.64
2022-09-28T04:17:54.893Z,61.07
2022-09-28T04:20:46.140Z,60.96
2022-09-28T04:23:13.422Z,61.29
2022-09-28T04:25:40.265Z,61.24
2022-09-28T04:28:26.779Z,61.11
2022-09-28T04:30:55.882Z,60.26
2022-09-28T04:33:25.127Z,60.84
2022-09-28T04:35:54.230Z,61.26
2022-09-28T04:38:35.865Z,60.97
2022-09-28T04:41:11.223Z,61.16
2022-09-28T04:43:39.150Z,61.97
2022-09-28T04:46:06.316Z,62.05
2022-09-28T04:48:41.064Z,62.07
2022-09-28T04:51:26.202Z,61.87
2022-09-28T04:53:53.034Z,62.26
2022-09-28T04:56:20.394Z,61.98
2022-09-28T04:58:52.473Z,62.17
2022-09-28T05:01:23.745Z,61.70
2022-09-28T05:03:59.720Z,61.88
2022-09-28T05:06:35.494Z,62.41
2022-09-28T05:09:05.534Z,62.02
2022-09-28T05:11:32.958Z,62.57
2022-09-28T05:14:05.814Z,62.85
2022-09-28T05:16:33.921Z,62.90
2022-09-28T05:19:34.899Z,62.86
2022-09-28T05:22:06.052Z,62.51
2022-09-28T05:24:42.785Z,63.05
2022-09-28T05:27:09.763Z,63.50
2022-09-28T05:29:36.460Z,63.41
2022-09-28T05:32:22.026Z,63.04
2022-09-28T05:35:16.763Z,63.10
2022-09-28T05:37:47.407Z,63.52
2022-09-28T05:40:17.019Z,63.33
2022-09-28T05:42:43.772Z,61.96
2022-09-28T05:45:10.841Z,62.45
2022-09-28T05:47:42.818Z,63.03
2022-09-28T05:50:11.951Z,62.46
2022-09-28T05:52:39.371Z,62.37
2022-09-28T05:55:09.973Z,62.19
2022-09-28T05:57:39.242Z,62.19
2022-09-28T06:00:12.080Z,61.79
2022-09-28T06:02:56.164Z,61.94
2022-09-28T06:05:26.836Z,61.35
2022-09-28T06:07:57.901Z,62.05
2022-09-28T06:10:28.350Z,62.14
2022-09-28T06:12:59.226Z,62.08
2022-09-28T06:15:33.526Z,61.62
2022-09-28T06:18:07.921Z,61.35
2022-09-28T06:21:08.220Z,61.40
2022-09-28T06:23:41.046Z,61.04
2022-09-28T06:26:11.684Z,61.37
2022-09-28T06:28:41.327Z,60.88
2022-09-28T06:31:08.963Z,61.06
2022-09-28T06:33:43.100Z,60.85
2022-09-28T06:36:15.157Z,60.25
2022-09-28T06:38:42.299Z,59.62
2022-09-28T06:41:12.440Z,59.33
2022-09-28T06:43:43.398Z,58.88
2022-09-28T06:46:14.967Z,57.14
2022-09-28T06:49:03.921Z,55.89
2022-09-28T06:51:52.351Z,57.06
2022-09-28T06:54:25.769Z,57.06
2022-09-28T06:57:02.355Z,56.15
2022-09-28T06:59:30.021Z,55.58
2022-09-28T07:01:57.851Z,53.78
2022-09-28T07:04:44.846Z,54.56
2022-09-28T07:07:31.502Z,53.86
2022-09-28T07:10:10.809Z,53.60
2022-09-28T07:13:04.785Z,53.44
2022-09-28T07:15:42.460Z,53.32
2022-09-28T07:18:17.940Z,54.05
2022-09-28T07:20:53.786Z,53.79
2022-09-28T07:23:23.802Z,54.23
2022-09-28T07:26:11.560Z,54.00
2022-09-28T07:28:52.627Z,52.67
2022-09-28T07:31:40.057Z,53.30
2022-09-28T07:34:25.668Z,53.39
2022-09-28T07:37:00.649Z,52.90
2022-09-28T07:39:28.077Z,53.94
2022-09-28T07:41:59.740Z,52.77
2022-09-28T07:44:29.743Z,53.06
2022-09-28T07:46:56.902Z,53.24
2022-09-28T07:50:00.794Z,53.60
2022-09-28T07:52:48.246Z,52.40
2022-09-28T07:55:43.966Z,53.25
2022-09-28T07:58:23.302Z,52.82
2022-09-28T08:01:17.173Z,53.00
2022-09-28T08:03:45.490Z,51.85
2022-09-28T08:06:17.208Z,52.43
2022-09-28T08:08:44.809Z,51.75
2022-09-28T08:11:18.930Z,52.60
2022-09-28T08:14:06.106Z,52.85
2022-09-28T08:16:54.960Z,53.64
2022-09-28T08:19:51.364Z,53.64
2022-09-28T08:22:19.529Z,53.37
2022-09-28T08:24:49.629Z,53.50
2022-09-28T08:27:18.865Z,53.81
2022-09-28T08:29:45.571Z,53.30
2022-09-28T08:32:31.222Z,53.41
2022-09-28T08:35:21.002Z,53.05
2022-09-28T08:38:08.177Z,53.18
2022-09-28T08:41:04.691Z,53.60
2022-09-28T08:44:04.900Z,52.53
2022-09-28T08:46:53.687Z,52.94
2022-09-28T08:49:44.309Z,52.75
2022-09-28T08:52:39.852Z,53.08
2022-09-28T08:55:42.235Z,52.26
2022-09-28T08:58:22.536Z,51.70
2022-09-28T09:00:55.574Z,51.06
2022-09-28T09:03:32.194Z,51.91
2022-09-28T09:06:46.167Z,51.98
2022-09-28T09:09:30.445Z,51.10
2022-09-28T09:12:39.157Z,50.81
2022-09-28T09:15:40.861Z,51.39
2022-09-28T09:18:26.323Z,52.23
2022-09-28T09:21:42.245Z,50.93
2022-09-28T09:24:27.323Z,51.46
2022-09-28T09:27:14.677Z,51.64
2022-09-28T09:29:55.518Z,51.94
2022-09-28T09:32:40.170Z,52.56
2022-09-28T09:35:32.095Z,52.07
2022-09-28T09:38:37.564Z,50.30
2022-09-28T09:41:43.975Z,49.74
2022-09-28T09:44:25.446Z,49.61
2022-09-28T09:47:10.421Z,50.68
2022-09-28T09:49:52.471Z,49.36
2022-09-28T09:52:46.538Z,48.48
2022-09-28T09:55:30.037Z,47.93
2022-09-28T09:58:34.258Z,47.64
2022-09-28T10:01:21.752Z,48.60
2022-09-28T10:04:30.066Z,45.29
2022-09-28T10:07:05.568Z,46.11
2022-09-28T10:09:44.782Z,46.83
2022-09-28T10:12:32.415Z,46.52
2022-09-28T10:15:08.868Z,45.43
2022-09-28T10:17:47.893Z,46.29
2022-09-28T10:20:55.931Z,45.75
2022-09-28T10:23:56.284Z,45.19
2022-09-28T10:26:39.806Z,45.34
2022-09-28T10:29:20.439Z,45.73
2022-09-28T10:31:49.341Z,44.97
2022-09-28T10:34:36.512Z,44.57
2022-09-28T10:37:11.174Z,45.49
2022-09-28T10:40:04.123Z,44.92
2022-09-28T10:42:36.188Z,45.10
2022-09-28T10:45:23.451Z,45.58
2022-09-28T10:47:52.294Z,44.30
2022-09-28T10:50:27.010Z,44.03
2022-09-28T10:53:20.223Z,44.64
2022-09-28T10:56:21.827Z,45.41
2022-09-28T10:58:53.618Z,46.02
2022-09-28T11:01:33.097Z,46.33
2022-09-28T11:04:05.389Z,46.74
2022-09-28T11:06:40.016Z,46.19
2022-09-28T11:09:29.780Z,45.58
2022-09-28T11:12:03.977Z,46.55
2022-09-28T11:14:43.687Z,45.93
2022-09-28T11:17:30.472Z,46.98
2022-09-28T11:20:02.710Z,46.77
2022-09-28T11:22:41.745Z,45.44
2022-09-28T11:25:19.287Z,45.14
2022-09-28T11:27:52.830Z,45.34
2022-09-28T11:30:40.628Z,44.89
2022-09-28T11:33:41.159Z,44.36
2022-09-28T11:36:58.355Z,43.82
2022-09-28T11:39:52.205Z,42.75
2022-09-28T11:42:38.351Z,43.54
2022-09-28T11:45:44.260Z,40.94
2022-09-28T11:48:37.371Z,40.42
2022-09-28T11:51:09.517Z,40.64
2022-09-28T11:53:47.939Z,39.18
2022-09-28T11:56:35.351Z,40.61
2022-09-28T11:59:05.490Z,40.99
2022-09-28T12:01:45.971Z,41.49
2022-09-28T12:04:38.169Z,42.50
2022-09-28T12:07:25.874Z,42.24
2022-09-28T12:09:55.555Z,42.23
2022-09-28T12:12:32.622Z,42.43
2022-09-28T12:15:04.604Z,41.75
2022-09-28T12:17:42.782Z,40.33
2022-09-28T12:20:22.654Z,39.90
2022-09-28T12:23:01.627Z,40.18
2022-09-28T12:25:37.258Z,41.48
2022-09-28T12:28:13.470Z,40.26
2022-09-28T12:30:42.401Z,40.56
2022-09-28T12:33:17.927Z,39.05
2022-09-28T12:36:05.933Z,39.54
2022-09-28T12:39:14.677Z,38.87
2022-09-28T12:41:51.660Z,38.44
2022-09-28T12:44:32.919Z,37.73
2022-09-28T12:47:09.718Z,36.78
2022-09-28T12:55:41.216Z,37.67
2022-09-28T12:58:16.068Z,36.84
2022-09-28T13:01:03.736Z,37.79
2022-09-28T13:03:33.105Z,36.43
2022-09-28T13:06:24.571Z,35.58
2022-09-28T13:09:07.648Z,36.10
2022-09-28T13:12:00.015Z,35.87
2022-09-28T13:15:02.208Z,35.00
2022-09-28T13:17:45.437Z,34.87
2022-09-28T13:20:21.223Z,34.84
2022-09-28T13:22:50.936Z,35.21
2022-09-28T13:25:20.990Z,35.51
2022-09-28T13:27:54.859Z,36.78
2022-09-28T13:30:21.889Z,38.18
2022-09-28T13:32:49.887Z,39.14
2022-09-28T13:35:21.084Z,38.17
2022-09-28T13:38:17.429Z,36.76
2022-09-28T13:41:06.257Z,36.48
2022-09-28T13:43:38.640Z,36.56
2022-09-28T13:46:23.903Z,37.17
2022-09-28T13:49:26.667Z,37.18
2022-09-28T13:52:05.270Z,37.94
2022-09-28T13:54:41.873Z,38.36
2022-09-28T13:57:34.872Z,38.41
2022-09-28T14:00:28.121Z,37.96
2022-09-28T14:03:01.880Z,37.13
2022-09-28T14:05:41.757Z,36.13
2022-09-28T14:08:26.751Z,34.45
2022-09-28T14:10:58.386Z,32.94
2022-09-28T14:13:43.545Z,29.92
2022-09-28T14:16:32.591Z,30.02
2022-09-28T14:19:08.486Z,29.98
2022-09-28T14:22:05.182Z,31.15
2022-09-28T14:24:50.156Z,31.47
2022-09-28T14:27:22.869Z,31.11
2022-09-28T14:29:55.795Z,31.41
2022-09-28T14:32:26.179Z,32.87
2022-09-28T14:35:05.294Z,33.59
2022-09-28T14:37:54.723Z,32.77
2022-09-28T14:41:10.748Z,32.04
2022-09-28T14:43:57.649Z,29.73
2022-09-28T14:46:34.236Z,30.88
2022-09-28T14:49:23.241Z,32.36
2022-09-28T14:51:52.991Z,31.85
2022-09-28T14:54:35.437Z,30.83
2022-09-28T14:57:16.731Z,30.24
2022-09-28T14:59:46.252Z,30.69
2022-09-28T15:02:15.470Z,31.05
2022-09-28T15:04:54.926Z,32.27
2022-09-28T15:07:23.584Z,33.34
2022-09-28T15:09:52.600Z,33.79
2022-09-28T15:12:27.528Z,34.58
2022-09-28T15:15:02.519Z,35.23
2022-09-28T15:17:39.188Z,35.92
2022-09-28T15:20:24.379Z,36.82
2022-09-28T15:22:58.630Z,37.59
2022-09-28T15:25:30.480Z,37.85
2022-09-28T15:27:59.633Z,37.43
2022-09-28T15:30:29.017Z,38.19
2022-09-28T15:33:16.832Z,38.83
2022-09-28T15:36:06.186Z,39.46
2022-09-28T15:38:34.150Z,38.73
2022-09-28T15:41:05.633Z,38.37
2022-09-28T15:43:37.871Z,37.94
2022-09-28T15:46:20.955Z,38.51
2022-09-28T15:48:59.184Z,39.11
2022-09-28T15:51:26.387Z,39.71
2022-09-28T15:54:09.341Z,40.39
2022-09-28T15:56:59.648Z,40.87
2022-09-28T15:59:32.831Z,41.46
2022-09-28T16:02:10.297Z,41.72
2022-09-28T16:04:55.186Z,41.95
2022-09-28T16:07:34.138Z,41.78
2022-09-28T16:10:12.981Z,42.06
2022-09-28T16:12:48.744Z,41.84
2022-09-28T16:15:29.671Z,42.11
2022-09-28T16:18:03.698Z,42.20
2022-09-28T16:20:36.500Z,42.27
2022-09-28T16:23:29.542Z,43.04
2022-09-28T16:26:10.523Z,43.39
2022-09-28T16:28:45.878Z,44.08
2022-09-28T16:31:12.533Z,44.17
2022-09-28T16:33:55.069Z,44.46
2022-09-28T16:36:29.799Z,43.65
2022-09-28T16:38:56.550Z,44.44
2022-09-28T16:41:27.515Z,44.72
2022-09-28T16:43:59.088Z,44.39
2022-09-28T16:46:31.589Z,44.84
2022-09-28T16:48:59.883Z,44.80
2022-09-28T16:51:29.047Z,44.65
2022-09-28T16:54:14.718Z,45.78
2022-09-28T16:56:44.002Z,45.76
2022-09-28T16:59:13.994Z,45.80
2022-09-28T17:01:43.756Z,45.39
2022-09-28T17:04:12.994Z,45.82
2022-09-28T17:06:43.523Z,46.12
2022-09-28T17:09:13.083Z,45.57
2022-09-28T17:11:39.895Z,46.13
2022-09-28T17:14:06.642Z,45.86
2022-09-28T17:19:31.062Z,45.53
2022-09-28T17:21:57.832Z,45.67
2022-09-28T17:24:24.506Z,45.69
2022-09-28T17:26:52.055Z,46.09
2022-09-28T17:29:21.592Z,45.89
2022-09-28T17:31:48.369Z,46.40
2022-09-28T17:34:17.465Z,47.27
2022-09-28T17:36:44.723Z,48.27
2022-09-28T17:39:16.651Z,47.86
2022-09-28T17:41:43.614Z,49.02
2022-09-28T17:44:16.370Z,49.12
2022-09-28T17:46:49.234Z,50.51
2022-09-28T17:49:16.930Z,51.06
2022-09-28T17:51:43.712Z,51.85
2022-09-28T17:54:10.919Z,54.05
2022-09-28T17:56:37.681Z,53.30
2022-09-28T17:59:12.653Z,54.91
2022-09-28T18:01:43.026Z,54.87
2022-09-28T18:04:39.776Z,54.25
2022-09-28T18:07:09.394Z,54.35
2022-09-28T18:09:38.631Z,55.20
2022-09-28T18:12:07.774Z,56.93
2022-09-28T18:14:36.770Z,56.57
2022-09-28T18:17:08.225Z,58.04
2022-09-28T18:19:42.844Z,58.34
2022-09-28T18:22:11.960Z,59.61
2022-09-28T18:24:39.959Z,58.15
2022-09-28T18:27:06.894Z,60.68
2022-09-28T18:29:35.944Z,58.97
2022-09-28T18:32:07.518Z,60.80
2022-09-28T18:34:39.994Z,60.50
2022-09-28T18:37:06.839Z,61.61
2022-09-28T18:39:35.934Z,61.07
2022-09-28T18:42:03.419Z,61.39
2022-09-28T18:44:33.885Z,61.32
2022-09-28T18:47:03.733Z,61.50
2022-09-28T18:49:31.559Z,62.14
2022-09-28T18:51:58.279Z,62.05
2022-09-28T18:54:25.395Z,62.79
2022-09-28T18:57:00.610Z,64.58
2022-09-28T18:59:40.345Z,64.99
2022-09-28T19:02:16.658Z,65.30
2022-09-28T19:04:56.020Z,64.21
2022-09-28T19:07:25.045Z,65.35
2022-09-28T19:09:59.510Z,65.77
2022-09-28T19:12:32.390Z,65.66
2022-09-28T19:15:04.219Z,66.19
2022-09-28T19:17:39.770Z,67.49
2022-09-28T19:20:11.181Z,67.11
2022-09-28T19:22:41.802Z,66.89
2022-09-28T19:25:15.250Z,67.39
2022-09-28T19:27:48.491Z,68.21
2022-09-28T19:30:15.598Z,67.78
2022-09-28T19:32:45.400Z,66.76
2022-09-28T19:35:25.358Z,66.90
2022-09-28T19:37:57.821Z,67.67
2022-09-28T19:40:29.691Z,67.19
2022-09-28T19:42:56.734Z,67.20
2022-09-28T19:45:29.068Z,68.73
2022-09-28T19:47:59.530Z,68.14
2022-09-28T19:50:28.734Z,67.96
2022-09-28T19:53:00.089Z,68.10
2022-09-28T19:55:54.820Z,68.06
2022-09-28T19:58:22.677Z,69.55
2022-09-28T20:00:49.397Z,68.71
2022-09-28T20:03:16.669Z,70.44
2022-09-28T20:05:46.235Z,69.98
2022-09-28T20:08:16.351Z,69.51
2022-09-28T20:10:52.414Z,69.24
2022-09-28T20:13:19.447Z,69.16
2022-09-28T20:15:46.220Z,69.20
2022-09-28T20:18:13.130Z,68.50
2022-09-28T20:20:42.126Z,68.70
2022-09-28T20:23:14.035Z,68.42
2022-09-28T20:25:45.513Z,68.75
2022-09-28T20:28:13.110Z,68.65
2022-09-28T20:30:42.271Z,69.32
2022-09-28T20:33:15.721Z,68.79
2022-09-28T20:35:46.959Z,68.91
2022-09-28T20:38:13.807Z,69.02
2022-09-28T20:40:44.677Z,69.00
2022-09-28T20:43:15.251Z,69.52
2022-09-28T20:45:44.303Z,69.30
2022-09-28T20:48:10.965Z,69.07
2022-09-28T20:50:37.678Z,69.25
2022-09-28T20:53:09.105Z,69.18
2022-09-28T20:55:41.214Z,69.07
2022-09-28T20:58:07.866Z,69.34
2022-09-28T21:00:34.669Z,68.93
2022-09-28T21:03:03.588Z,68.42
2022-09-28T21:05:37.866Z,68.47
2022-09-28T21:08:04.551Z,69.31
2022-09-28T21:10:33.479Z,69.21
2022-09-28T21:13:00.168Z,69.51
2022-09-28T21:15:29.376Z,69.70
2022-09-28T21:17:56.422Z,70.92
2022-09-28T21:20:23.108Z,70.04
2022-09-28T21:22:49.810Z,70.07
2022-09-28T21:25:16.515Z,70.52
2022-09-28T21:27:46.458Z,69.80
2022-09-28T21:30:13.476Z,69.31
2022-09-28T21:32:42.438Z,69.91
2022-09-28T21:35:12.176Z,70.11
2022-09-28T21:37:38.920Z,69.71
2022-09-28T21:40:09.961Z,69.94
2022-09-28T21:42:36.642Z,70.54
2022-09-28T21:45:06.111Z,70.41
2022-09-28T21:47:32.850Z,70.89
2022-09-28T21:50:01.831Z,71.29
2022-09-28T21:52:33.128Z,70.82
2022-09-28T21:54:59.819Z,70.30
2022-09-28T21:57:26.458Z,70.43
2022-09-28T21:59:55.414Z,69.93
2022-09-28T22:02:24.839Z,69.85
2022-09-28T22:04:51.799Z,70.00
2022-09-28T22:07:18.458Z,69.92
2022-09-28T22:09:51.560Z,69.82
2022-09-28T22:12:22.492Z,69.63
2022-09-28T22:14:49.272Z,69.68
2022-09-28T22:17:18.389Z,69.67
2022-09-28T22:19:47.559Z,69.58
2022-09-28T22:22:14.307Z,69.69
2022-09-28T22:24:41.056Z,70.22
2022-09-28T22:27:10.031Z,70.06
2022-09-28T22:29:39.819Z,70.37
2022-09-28T22:32:07.537Z,69.67
2022-09-28T22:34:36.793Z,69.43
2022-09-28T22:37:03.582Z,70.79
2022-09-28T22:39:34.315Z,69.79
2022-09-28T22:42:04.206Z,69.71
2022-09-28T22:44:30.884Z,69.79
2022-09-28T22:47:00.052Z,70.07
2022-09-28T22:49:29.408Z,69.68
2022-09-28T22:51:58.691Z,69.74
2022-09-28T22:54:25.463Z,70.14
2022-09-28T22:56:54.834Z,70.46
2022-09-28T22:59:23.680Z,70.79
2022-09-28T23:01:53.103Z,70.66
2022-09-28T23:04:19.873Z,70.90
2022-09-28T23:06:48.896Z,70.26
2022-09-28T23:09:15.964Z,70.22
2022-09-28T23:11:42.837Z,70.27
2022-09-28T23:14:11.021Z,69.97
2022-09-28T23:16:37.764Z,70.14
2022-09-28T23:19:04.568Z,70.25
2022-09-28T23:21:31.316Z,70.88
2022-09-28T23:24:04.776Z,70.30
2022-09-28T23:26:36.924Z,70.27
2022-09-28T23:29:06.115Z,70.37
2022-09-28T23:31:33.357Z,70.42
2022-09-28T23:34:02.362Z,70.02
2022-09-28T23:36:29.717Z,69.75
2022-09-28T23:38:56.719Z,70.48
2022-09-28T23:41:23.488Z,70.70
2022-09-28T23:43:52.439Z,70.06
2022-09-28T23:46:20.993Z,69.96
2022-09-28T23:48:48.614Z,70.15
2022-09-28T23:51:15.371Z,70.08
2022-09-28T23:53:43.294Z,70.24
2022-09-28T23:56:12.195Z,70.09
2022-09-28T23:58:40.951Z,69.78
